createdAt,value
2018-03-28T00:00:49.590Z,6.03
2018-03-28T00:03:17.878Z,7.90
2018-03-28T00:05:46.958Z,7.87
2018-03-28T00:08:15.342Z,7.30
2018-03-28T00:10:43.617Z,8.27
2018-03-28T00:13:11.997Z,7.70
2018-03-28T00:15:40.250Z,7.17
2018-03-28T00:18:08.532Z,6.97
2018-03-28T00:20:36.797Z,9.47
2018-03-28T00:23:05.055Z,7.40
2018-03-28T00:25:34.137Z,8.57
2018-03-28T00:28:03.196Z,7.30
2018-03-28T00:30:31.577Z,8.10
2018-03-28T00:32:59.865Z,6.87
2018-03-28T00:35:28.140Z,7.63
2018-03-28T00:37:56.510Z,7.90
2018-03-28T00:40:24.994Z,8.20
2018-03-28T00:42:53.250Z,7.90
2018-03-28T00:45:21.521Z,7.60
2018-03-28T00:47:49.792Z,8.70
2018-03-28T00:50:18.091Z,7.90
2018-03-28T00:52:46.484Z,9.30
2018-03-28T00:55:14.877Z,7.50
2018-03-28T00:57:43.902Z,8.07
2018-03-28T01:00:13.047Z,7.90
2018-03-28T01:02:41.432Z,7.80
2018-03-28T01:05:09.707Z,7.93
2018-03-28T01:07:37.956Z,9.53
2018-03-28T01:10:06.237Z,9.10
2018-03-28T01:12:34.496Z,8.70
2018-03-28T01:15:02.816Z,8.40
2018-03-28T01:17:31.073Z,8.00
2018-03-28T01:19:59.383Z,8.87
2018-03-28T01:22:27.760Z,9.17
2018-03-28T01:24:56.042Z,8.67
2018-03-28T01:27:24.370Z,9.33
2018-03-28T01:29:52.653Z,8.90
2018-03-28T01:32:21.064Z,8.17
2018-03-28T01:34:49.316Z,8.23
2018-03-28T01:37:17.607Z,9.10
2018-03-28T01:39:45.997Z,10.30
2018-03-28T01:42:14.279Z,8.57
2018-03-28T01:44:42.536Z,9.00
2018-03-28T01:47:10.841Z,8.73
2018-03-28T01:49:39.869Z,7.90
2018-03-28T01:52:08.917Z,8.77
2018-03-28T01:54:38.748Z,9.13
2018-03-28T01:57:07.772Z,8.27
2018-03-28T01:59:36.924Z,8.53
2018-03-28T02:02:05.239Z,9.10
2018-03-28T02:04:33.616Z,8.77
2018-03-28T02:07:03.382Z,7.80
2018-03-28T02:09:31.661Z,9.90
2018-03-28T02:11:59.937Z,8.50
2018-03-28T02:14:28.223Z,8.57
2018-03-28T02:16:56.503Z,9.67
2018-03-28T02:19:25.620Z,8.90
2018-03-28T02:21:53.876Z,8.13
2018-03-28T02:24:22.156Z,9.70
2018-03-28T02:26:50.534Z,10.73
2018-03-28T02:29:18.788Z,9.67
2018-03-28T02:31:47.101Z,9.87
2018-03-28T02:34:16.234Z,9.73
2018-03-28T02:36:45.383Z,11.77
2018-03-28T02:39:13.642Z,9.93
2018-03-28T02:41:42.042Z,11.47
2018-03-28T02:44:10.289Z,10.23
2018-03-28T02:46:38.580Z,11.67
2018-03-28T02:49:06.843Z,11.00
2018-03-28T02:51:35.150Z,11.30
2018-03-28T02:54:03.465Z,11.17
2018-03-28T02:56:32.498Z,11.03
2018-03-28T02:59:00.793Z,11.87
2018-03-28T03:01:29.048Z,10.60
2018-03-28T03:03:57.333Z,13.80
2018-03-28T03:06:25.605Z,13.37
2018-03-28T03:08:54.008Z,11.87
2018-03-28T03:11:22.274Z,12.43
2018-03-28T03:13:50.561Z,12.83
2018-03-28T03:16:18.833Z,12.57
2018-03-28T03:18:47.104Z,12.50
2018-03-28T03:21:15.701Z,11.70
2018-03-28T03:23:46.131Z,11.20
2018-03-28T03:26:14.416Z,12.13
2018-03-28T03:28:42.690Z,11.73
2018-03-28T03:31:10.986Z,12.53
2018-03-28T03:33:39.244Z,12.97
2018-03-28T03:36:07.644Z,12.60
2018-03-28T03:38:36.686Z,12.83
2018-03-28T03:41:05.066Z,12.03
2018-03-28T03:43:33.349Z,15.33
2018-03-28T03:46:01.618Z,14.17
2018-03-28T03:48:29.898Z,14.23
2018-03-28T03:50:58.157Z,14.07
2018-03-28T03:53:26.441Z,14.63
2018-03-28T03:55:54.756Z,14.33
2018-03-28T03:58:23.217Z,14.77
2018-03-28T04:00:51.486Z,13.63
2018-03-28T04:03:19.778Z,15.40
2018-03-28T04:05:48.068Z,12.70
2018-03-28T04:08:16.356Z,16.20
2018-03-28T04:10:44.653Z,14.60
2018-03-28T04:13:13.690Z,17.10
2018-03-28T04:15:42.001Z,16.47
2018-03-28T04:18:10.272Z,15.13
2018-03-28T04:20:38.553Z,14.77
2018-03-28T04:23:06.840Z,16.20
2018-03-28T04:25:35.125Z,17.37
2018-03-28T04:28:04.917Z,16.37
2018-03-28T04:30:33.207Z,17.17
2018-03-28T04:33:02.251Z,16.07
2018-03-28T04:35:30.514Z,16.97
2018-03-28T04:37:58.791Z,17.23
2018-03-28T04:40:27.826Z,16.07
2018-03-28T04:42:56.113Z,17.40
2018-03-28T04:45:24.404Z,16.60
2018-03-28T04:47:52.705Z,17.07
2018-03-28T04:50:21.747Z,16.20
2018-03-28T04:52:50.050Z,17.10
2018-03-28T04:55:18.436Z,17.50
2018-03-28T04:57:46.709Z,18.50
2018-03-28T05:00:14.985Z,18.80
2018-03-28T05:02:43.369Z,18.37
2018-03-28T05:05:12.229Z,17.57
2018-03-28T05:07:40.493Z,17.57
2018-03-28T05:10:08.786Z,17.03
2018-03-28T05:12:37.068Z,17.77
2018-03-28T05:15:05.347Z,17.43
2018-03-28T05:17:33.616Z,16.97
2018-03-28T05:20:02.023Z,18.37
2018-03-28T05:22:30.336Z,16.80
2018-03-28T05:24:58.589Z,16.33
2018-03-28T05:27:26.933Z,17.60
2018-03-28T05:29:55.243Z,18.40
2018-03-28T05:32:23.512Z,18.80
2018-03-28T05:34:51.793Z,17.80
2018-03-28T05:37:20.086Z,19.30
2018-03-28T05:39:48.348Z,19.40
2018-03-28T05:42:16.641Z,20.60
2018-03-28T05:44:45.714Z,17.23
2018-03-28T05:47:14.142Z,18.90
2018-03-28T05:49:43.229Z,20.07
2018-03-28T05:52:11.570Z,19.40
2018-03-28T05:54:39.838Z,20.33
2018-03-28T05:57:08.199Z,20.93
2018-03-28T05:59:36.457Z,20.60
2018-03-28T06:02:04.712Z,19.67
2018-03-28T06:04:33.019Z,21.80
2018-03-28T06:07:01.301Z,20.23
2018-03-28T06:09:29.781Z,22.30
2018-03-28T06:11:58.249Z,21.40
2018-03-28T06:14:26.849Z,21.50
2018-03-28T06:16:55.225Z,21.80
2018-03-28T06:19:23.540Z,23.53
2018-03-28T06:21:52.577Z,20.90
2018-03-28T06:24:20.893Z,21.47
2018-03-28T06:26:49.209Z,23.87
2018-03-28T06:29:18.275Z,22.20
2018-03-28T06:31:47.337Z,24.00
2018-03-28T06:34:15.600Z,21.20
2018-03-28T06:36:44.004Z,22.20
2018-03-28T06:39:12.252Z,22.47
2018-03-28T06:41:40.557Z,22.40
2018-03-28T06:44:08.836Z,22.90
2018-03-28T06:46:37.228Z,23.47
2018-03-28T06:49:05.522Z,22.10
2018-03-28T06:51:34.587Z,24.93
2018-03-28T06:54:02.853Z,22.80
2018-03-28T06:56:31.270Z,24.93
2018-03-28T06:59:00.302Z,23.23
2018-03-28T07:01:28.572Z,21.97
2018-03-28T07:03:56.900Z,23.40
2018-03-28T07:06:25.276Z,24.43
2018-03-28T07:08:53.552Z,25.73
2018-03-28T07:11:21.838Z,24.37
2018-03-28T07:13:50.138Z,24.77
2018-03-28T07:16:18.493Z,21.73
2018-03-28T07:18:46.786Z,23.20
2018-03-28T07:21:15.837Z,25.07
2018-03-28T07:23:44.340Z,26.23
2018-03-28T07:26:12.613Z,26.67
2018-03-28T07:28:41.661Z,26.03
2018-03-28T07:31:10.066Z,24.93
2018-03-28T07:33:38.334Z,26.50
2018-03-28T07:36:06.640Z,24.60
2018-03-28T07:38:35.683Z,23.90
2018-03-28T07:41:03.991Z,24.67
2018-03-28T07:43:33.028Z,23.87
2018-03-28T07:46:02.174Z,27.00
2018-03-28T07:48:30.456Z,24.03
2018-03-28T07:50:58.744Z,25.90
2018-03-28T07:53:27.786Z,26.43
2018-03-28T07:55:56.628Z,25.63
2018-03-28T07:58:24.901Z,25.30
2018-03-28T08:00:53.175Z,23.27
2018-03-28T08:03:21.473Z,25.23
2018-03-28T08:05:50.539Z,29.00
2018-03-28T08:08:18.834Z,29.07
2018-03-28T08:10:47.959Z,27.30
2018-03-28T08:13:16.289Z,26.27
2018-03-28T08:15:44.567Z,26.83
2018-03-28T08:18:12.871Z,28.37
2018-03-28T08:20:41.914Z,28.10
2018-03-28T08:23:10.192Z,27.70
2018-03-28T08:25:38.527Z,30.50
2018-03-28T08:28:06.802Z,31.37
2018-03-28T08:30:35.874Z,31.63
2018-03-28T08:33:04.968Z,31.80
2018-03-28T08:35:33.276Z,30.33
2018-03-28T08:38:02.326Z,29.70
2018-03-28T08:40:30.620Z,29.30
2018-03-28T08:42:58.894Z,32.77
2018-03-28T08:45:27.213Z,32.43
2018-03-28T08:47:55.489Z,29.07
2018-03-28T08:50:24.524Z,29.87
2018-03-28T08:52:52.828Z,31.60
2018-03-28T08:55:21.096Z,30.57
2018-03-28T08:57:49.400Z,31.73
2018-03-28T09:00:19.180Z,34.30
2018-03-28T09:02:47.492Z,30.80
2018-03-28T09:05:16.540Z,29.20
2018-03-28T09:07:44.821Z,31.60
2018-03-28T09:10:13.111Z,32.77
2018-03-28T09:12:41.498Z,30.20
2018-03-28T09:15:09.776Z,31.77
2018-03-28T09:17:38.078Z,30.40
2018-03-28T09:20:06.349Z,32.13
2018-03-28T09:22:34.637Z,34.03
2018-03-28T09:25:03.674Z,29.80
2018-03-28T09:27:32.179Z,35.20
2018-03-28T09:30:00.439Z,33.57
2018-03-28T09:32:28.714Z,33.63
2018-03-28T09:34:57.072Z,30.93
2018-03-28T09:37:25.310Z,32.30
2018-03-28T09:39:55.203Z,32.60
2018-03-28T09:42:23.594Z,33.00
2018-03-28T09:44:51.873Z,30.10
2018-03-28T09:47:20.239Z,29.90
2018-03-28T09:49:48.528Z,34.30
2018-03-28T09:52:18.312Z,34.00
2018-03-28T09:54:46.600Z,33.60
2018-03-28T09:57:14.877Z,32.20
2018-03-28T09:59:43.164Z,34.47
2018-03-28T10:02:12.264Z,35.57
2018-03-28T10:04:46.363Z,29.90
2018-03-28T10:07:14.653Z,34.60
2018-03-28T10:09:43.037Z,33.23
2018-03-28T10:12:11.322Z,32.50
2018-03-28T10:14:39.613Z,31.00
2018-03-28T10:17:08.637Z,32.57
2018-03-28T10:19:36.946Z,32.67
2018-03-28T10:22:05.345Z,30.40
2018-03-28T10:24:33.614Z,29.07
2018-03-28T10:27:01.909Z,32.40
2018-03-28T10:29:31.680Z,26.87
2018-03-28T10:31:59.964Z,29.73
2018-03-28T10:34:28.272Z,30.27
2018-03-28T10:36:56.581Z,30.37
2018-03-28T10:39:24.878Z,29.37
2018-03-28T10:41:53.160Z,31.50
2018-03-28T10:44:21.477Z,30.97
2018-03-28T10:46:49.749Z,30.90
2018-03-28T10:49:18.037Z,29.87
2018-03-28T10:51:46.297Z,29.03
2018-03-28T10:54:14.591Z,32.30
2018-03-28T10:56:42.873Z,29.93
2018-03-28T10:59:12.670Z,33.23
2018-03-28T11:01:41.046Z,31.90
2018-03-28T11:04:09.328Z,32.27
2018-03-28T11:06:37.603Z,32.90
2018-03-28T11:09:06.084Z,30.73
2018-03-28T11:11:34.337Z,30.83
2018-03-28T11:14:02.738Z,31.97
2018-03-28T11:16:31.117Z,31.97
2018-03-28T11:18:59.384Z,30.87
2018-03-28T11:21:27.777Z,32.00
2018-03-28T11:23:56.041Z,31.00
2018-03-28T11:26:24.364Z,32.13
2018-03-28T11:28:53.397Z,30.80
2018-03-28T11:31:21.803Z,29.53
2018-03-28T11:33:50.083Z,30.43
2018-03-28T11:36:18.360Z,30.43
2018-03-28T11:38:46.644Z,29.07
2018-03-28T11:41:14.956Z,28.00
2018-03-28T11:43:44.007Z,26.77
2018-03-28T11:46:12.291Z,25.97
2018-03-28T11:48:40.667Z,28.90
2018-03-28T11:51:08.948Z,26.40
2018-03-28T11:53:37.233Z,25.07
2018-03-28T11:56:05.514Z,27.40
2018-03-28T11:58:33.796Z,23.93
2018-03-28T12:01:02.152Z,25.40
2018-03-28T12:03:30.545Z,25.23
2018-03-28T12:05:58.913Z,26.13
2018-03-28T12:08:27.299Z,24.70
2018-03-28T12:10:55.654Z,24.87
2018-03-28T12:13:23.891Z,24.17
2018-03-28T12:15:52.188Z,25.63
2018-03-28T12:18:20.463Z,23.43
2018-03-28T12:20:48.752Z,24.10
2018-03-28T12:23:17.025Z,21.40
2018-03-28T12:25:46.138Z,23.97
2018-03-28T12:28:14.392Z,25.07
2018-03-28T12:30:42.689Z,20.87
2018-03-28T12:33:10.987Z,21.47
2018-03-28T12:35:39.313Z,21.60
2018-03-28T12:38:07.669Z,20.90
2018-03-28T12:40:36.021Z,20.80
2018-03-28T12:43:04.401Z,24.27
2018-03-28T12:45:32.655Z,22.77
2018-03-28T12:48:00.951Z,22.20
2018-03-28T12:50:29.255Z,21.57
2018-03-28T12:52:57.611Z,22.13
2018-03-28T12:55:26.105Z,20.20
2018-03-28T12:57:54.268Z,21.30
2018-03-28T13:00:23.384Z,21.93
2018-03-28T13:02:52.428Z,20.70
2018-03-28T13:05:20.725Z,22.40
2018-03-28T13:07:49.021Z,21.33
2018-03-28T13:10:17.313Z,21.27
2018-03-28T13:12:46.361Z,21.50
2018-03-28T13:15:14.645Z,20.13
2018-03-28T13:17:42.948Z,20.63
2018-03-28T13:20:11.228Z,20.47
2018-03-28T13:22:39.597Z,20.37
2018-03-28T13:25:08.662Z,21.13
2018-03-28T13:27:36.924Z,19.83
2018-03-28T13:30:05.212Z,21.90
2018-03-28T13:32:33.476Z,22.03
2018-03-28T13:35:01.756Z,21.83
2018-03-28T13:37:30.025Z,20.80
2018-03-28T13:39:58.374Z,21.77
2018-03-28T13:42:27.411Z,21.03
2018-03-28T13:44:55.752Z,23.57
2018-03-28T13:47:24.802Z,20.60
2018-03-28T13:49:53.207Z,21.17
2018-03-28T13:52:21.481Z,21.73
2018-03-28T13:54:49.780Z,20.80
2018-03-28T13:57:18.859Z,18.80
2018-03-28T13:59:47.128Z,20.60
2018-03-28T14:02:15.418Z,19.83
2018-03-28T14:04:43.682Z,19.90
2018-03-28T14:07:11.968Z,22.53
2018-03-28T14:09:41.756Z,19.73
2018-03-28T14:12:10.032Z,19.67
2018-03-28T14:14:38.337Z,18.80
2018-03-28T14:17:06.614Z,20.00
2018-03-28T14:19:34.900Z,20.70
2018-03-28T14:22:03.373Z,20.20
2018-03-28T14:24:31.753Z,22.70
2018-03-28T14:27:00.030Z,23.37
2018-03-28T14:29:28.326Z,21.60
2018-03-28T14:31:56.601Z,22.27
2018-03-28T14:34:25.671Z,21.17
2018-03-28T14:36:53.937Z,23.80
2018-03-28T14:39:22.244Z,22.77
2018-03-28T14:41:51.276Z,23.23
2018-03-28T14:44:19.552Z,22.27
2018-03-28T14:46:47.833Z,22.90
2018-03-28T14:49:16.115Z,21.93
2018-03-28T14:51:44.451Z,23.97
2018-03-28T14:54:14.237Z,24.07
2018-03-28T14:56:42.508Z,24.40
2018-03-28T14:59:10.904Z,22.20
2018-03-28T15:01:39.181Z,21.73
2018-03-28T15:04:07.453Z,23.10
2018-03-28T15:06:35.788Z,24.13
2018-03-28T15:09:04.063Z,23.33
2018-03-28T15:11:32.343Z,23.57
2018-03-28T15:14:00.638Z,24.40
2018-03-28T15:16:28.945Z,23.70
2018-03-28T15:18:58.027Z,23.67
2018-03-28T15:21:26.306Z,22.40
2018-03-28T15:23:54.597Z,23.20
2018-03-28T15:26:22.875Z,22.77
2018-03-28T15:28:51.150Z,22.70
2018-03-28T15:31:19.417Z,24.07
2018-03-28T15:33:47.717Z,23.10
2018-03-28T15:36:16.001Z,25.53
2018-03-28T15:38:45.045Z,22.23
2018-03-28T15:41:13.324Z,23.47
2018-03-28T15:43:41.589Z,24.87
2018-03-28T15:46:09.878Z,22.80
2018-03-28T15:48:38.157Z,23.63
2018-03-28T15:51:06.440Z,22.43
2018-03-28T15:53:34.722Z,23.40
2018-03-28T15:56:03.014Z,22.10
2018-03-28T15:58:31.284Z,24.40
2018-03-28T16:00:59.675Z,22.83
2018-03-28T16:03:27.965Z,23.13
2018-03-28T16:05:56.247Z,22.33
2018-03-28T16:08:24.531Z,24.80
2018-03-28T16:10:53.589Z,20.60
2018-03-28T16:13:21.876Z,24.20
2018-03-28T16:15:50.191Z,24.43
2018-03-28T16:18:19.219Z,21.97
2018-03-28T16:20:47.521Z,22.67
2018-03-28T16:23:15.801Z,24.90
2018-03-28T16:25:44.080Z,24.50
2018-03-28T16:28:12.464Z,24.90
2018-03-28T16:30:40.745Z,23.60
2018-03-28T16:33:09.028Z,26.00
2018-03-28T16:35:37.296Z,25.83
2018-03-28T16:38:07.211Z,26.00
2018-03-28T16:40:35.502Z,23.70
2018-03-28T16:43:03.868Z,24.67
2018-03-28T16:45:32.158Z,23.37
2018-03-28T16:48:00.433Z,25.07
2018-03-28T16:50:28.769Z,26.47
2018-03-28T16:52:57.037Z,24.80
2018-03-28T16:55:25.314Z,25.67
2018-03-28T16:57:53.631Z,26.40
2018-03-28T17:00:21.893Z,26.70
2018-03-28T17:02:50.188Z,25.73
2018-03-28T17:05:18.482Z,23.80
2018-03-28T17:07:46.792Z,25.40
2018-03-28T17:10:15.800Z,25.40
2018-03-28T17:12:45.736Z,25.53
2018-03-28T17:15:14.012Z,25.47
2018-03-28T17:17:42.318Z,24.73
2018-03-28T17:20:11.368Z,23.87
2018-03-28T17:22:39.644Z,24.00
2018-03-28T17:25:07.960Z,28.17
2018-03-28T17:27:36.244Z,28.20
2018-03-28T17:30:04.591Z,25.10
2018-03-28T17:32:33.611Z,27.00
2018-03-28T17:35:01.913Z,29.30
2018-03-28T17:37:30.948Z,26.87
2018-03-28T17:39:59.257Z,26.23
2018-03-28T17:42:27.543Z,28.50
2018-03-28T17:44:55.840Z,25.23
2018-03-28T17:47:24.126Z,26.67
2018-03-28T17:49:53.177Z,27.53
2018-03-28T17:52:21.486Z,26.93
2018-03-28T17:54:49.764Z,28.10
2018-03-28T17:57:18.847Z,26.30
2018-03-28T17:59:47.113Z,28.20
2018-03-28T18:02:15.429Z,27.97
2018-03-28T18:04:44.590Z,24.03
2018-03-28T18:07:12.856Z,27.83
2018-03-28T18:09:41.151Z,27.10
2018-03-28T18:12:09.429Z,25.27
2018-03-28T18:14:37.750Z,28.97
2018-03-28T18:17:06.017Z,26.10
2018-03-28T18:19:35.084Z,28.33
2018-03-28T18:22:03.353Z,24.30
2018-03-28T18:24:31.744Z,26.37
2018-03-28T18:27:00.111Z,27.40
2018-03-28T18:29:28.417Z,26.10
2018-03-28T18:31:57.453Z,24.83
2018-03-28T18:34:25.720Z,23.97
2018-03-28T18:36:54.040Z,26.40
2018-03-28T18:39:22.325Z,25.73
2018-03-28T18:41:50.631Z,24.10
2018-03-28T18:44:19.682Z,23.60
2018-03-28T18:46:47.992Z,27.70
2018-03-28T18:49:17.036Z,26.40
2018-03-28T18:51:45.542Z,26.87
2018-03-28T18:54:13.801Z,28.70
2018-03-28T18:56:42.123Z,29.03
2018-03-28T18:59:10.464Z,27.83
2018-03-28T19:01:38.788Z,28.47
2018-03-28T19:04:07.042Z,29.53
2018-03-28T19:06:35.311Z,30.30
2018-03-28T19:09:03.596Z,31.77
2018-03-28T19:11:31.880Z,30.43
2018-03-28T19:14:00.917Z,32.60
2018-03-28T19:16:29.209Z,30.83
2018-03-28T19:18:57.481Z,30.07
2018-03-28T19:21:25.788Z,30.90
2018-03-28T19:23:54.068Z,31.37
2018-03-28T19:26:22.369Z,30.17
2018-03-28T19:28:51.396Z,30.80
2018-03-28T19:31:19.821Z,30.90
2018-03-28T19:33:48.076Z,32.10
2018-03-28T19:36:16.349Z,32.50
2018-03-28T19:38:44.638Z,28.23
2018-03-28T19:41:12.899Z,32.23
2018-03-28T19:43:41.409Z,29.57
2018-03-28T19:46:10.490Z,29.60
2018-03-28T19:48:38.832Z,30.33
2018-03-28T19:51:07.137Z,32.70
2018-03-28T19:53:35.420Z,30.60
2018-03-28T19:56:03.919Z,32.93
2018-03-28T19:58:32.245Z,30.70
2018-03-28T20:01:01.270Z,32.40
2018-03-28T20:03:29.556Z,30.20
2018-03-28T20:05:57.833Z,28.63
2018-03-28T20:08:26.137Z,29.97
2018-03-28T20:10:54.408Z,31.33
2018-03-28T20:13:22.713Z,32.97
2018-03-28T20:15:51.754Z,31.83
2018-03-28T20:18:20.013Z,29.80
2018-03-28T20:20:48.309Z,31.00
2018-03-28T20:23:16.588Z,30.13
2018-03-28T20:25:44.866Z,35.37
2018-03-28T20:28:13.133Z,32.60
2018-03-28T20:30:41.433Z,34.30
2018-03-28T20:33:09.710Z,31.20
2018-03-28T20:35:38.097Z,31.37
2018-03-28T20:38:06.477Z,31.20
2018-03-28T20:40:34.751Z,33.23
2018-03-28T20:43:03.012Z,31.83
2018-03-28T20:45:31.319Z,33.00
2018-03-28T20:48:00.349Z,32.03
2018-03-28T20:50:29.389Z,34.73
2018-03-28T20:52:57.658Z,34.43
2018-03-28T20:55:25.968Z,32.93
2018-03-28T20:57:55.773Z,34.47
2018-03-28T21:00:24.860Z,34.33
2018-03-28T21:02:53.909Z,35.73
2018-03-28T21:05:22.208Z,34.27
2018-03-28T21:07:50.645Z,35.47
2018-03-28T21:10:18.901Z,35.10
2018-03-28T21:12:47.229Z,32.77
2018-03-28T21:15:15.502Z,32.27
2018-03-28T21:17:43.798Z,33.77
2018-03-28T21:20:12.202Z,31.57
2018-03-28T21:22:40.583Z,37.80
2018-03-28T21:25:08.873Z,33.93
2018-03-28T21:27:37.238Z,31.37
2018-03-28T21:30:05.496Z,35.17
2018-03-28T21:32:33.770Z,35.37
2018-03-28T21:35:02.046Z,32.33
2018-03-28T21:37:30.340Z,31.97
2018-03-28T21:39:58.626Z,29.80
2018-03-28T21:42:27.012Z,29.20
2018-03-28T21:44:55.281Z,30.23
2018-03-28T21:47:23.548Z,28.63
2018-03-28T21:49:51.937Z,31.77
2018-03-28T21:52:20.989Z,27.37
2018-03-28T21:54:49.332Z,29.00
2018-03-28T21:57:18.412Z,29.90
2018-03-28T21:59:46.714Z,30.03
2018-03-28T22:02:15.812Z,26.20
2018-03-28T22:04:44.974Z,26.93
2018-03-28T22:07:13.241Z,27.70
2018-03-28T22:09:41.635Z,25.70
2018-03-28T22:12:09.912Z,29.13
2018-03-28T22:14:38.168Z,25.63
2018-03-28T22:17:06.457Z,26.53
2018-03-28T22:19:34.744Z,25.43
2018-03-28T22:22:03.028Z,24.70
2018-03-28T22:24:31.297Z,24.30
2018-03-28T22:27:00.445Z,25.70
2018-03-28T22:29:28.717Z,23.90
2018-03-28T22:31:57.776Z,24.90
2018-03-28T22:34:27.561Z,24.37
2018-03-28T22:36:55.870Z,24.67
2018-03-28T22:39:24.906Z,24.90
2018-03-28T22:41:53.184Z,24.23
2018-03-28T22:44:21.461Z,25.53
2018-03-28T22:46:49.793Z,26.07
2018-03-28T22:49:18.069Z,23.63
2018-03-28T22:51:46.335Z,24.20
2018-03-28T22:54:14.719Z,23.90
2018-03-28T22:56:43.111Z,22.07
2018-03-28T22:59:11.389Z,20.80
2018-03-28T23:01:40.416Z,23.77
2018-03-28T23:04:08.697Z,23.80
2018-03-28T23:06:36.960Z,22.60
2018-03-28T23:09:06.016Z,24.93
2018-03-28T23:11:34.321Z,20.33
2018-03-28T23:14:03.378Z,23.73
2018-03-28T23:16:31.637Z,22.93
2018-03-28T23:18:59.955Z,22.57
2018-03-28T23:21:28.230Z,24.60
2018-03-28T23:23:56.496Z,21.50
2018-03-28T23:26:24.801Z,23.00
2018-03-28T23:28:53.831Z,21.67
2018-03-28T23:31:22.112Z,20.23
2018-03-28T23:33:50.376Z,22.13
2018-03-28T23:36:18.660Z,22.73
2018-03-28T23:38:46.928Z,21.03
2018-03-28T23:41:15.976Z,21.90
2018-03-28T23:43:44.359Z,20.67
2018-03-28T23:46:12.651Z,21.80
2018-03-28T23:48:40.913Z,20.10
2018-03-28T23:51:09.228Z,22.83
2018-03-28T23:53:38.257Z,22.47
2018-03-28T23:56:06.538Z,21.13
2018-03-28T23:58:34.812Z,21.60
